sensor_id;sensor_type;location;lat;lon;timestamp;temperature;humidity
14006;DHT22;7078;51.542;7.314;2023-08-30T00:00:15;15.50;99.90
14006;DHT22;7078;51.542;7.314;2023-08-30T00:02:44;15.50;99.90
14006;DHT22;7078;51.542;7.314;2023-08-30T00:05:10;15.30;99.90
14006;DHT22;7078;51.542;7.314;2023-08-30T00:07:36;15.10;99.90
14006;DHT22;7078;51.542;7.314;2023-08-30T00:10:02;15.30;99.90
14006;DHT22;7078;51.542;7.314;2023-08-30T00:12:29;15.30;99.90
14006;DHT22;7078;51.542;7.314;2023-08-30T00:14:55;15.20;99.90
14006;DHT22;7078;51.542;7.314;2023-08-30T00:17:22;15.10;99.90
14006;DHT22;7078;51.542;7.314;2023-08-30T00:19:47;15.10;99.90
14006;DHT22;7078;51.542;7.314;2023-08-30T00:22:13;14.90;99.90
14006;DHT22;7078;51.542;7.314;2023-08-30T00:24:39;15.00;99.90
14006;DHT22;7078;51.542;7.314;2023-08-30T00:27:05;14.90;99.90
14006;DHT22;7078;51.542;7.314;2023-08-30T00:29:31;15.10;99.90
14006;DHT22;7078;51.542;7.314;2023-08-30T00:31:56;14.80;99.90
14006;DHT22;7078;51.542;7.314;2023-08-30T00:34:22;14.70;99.90
14006;DHT22;7078;51.542;7.314;2023-08-30T00:36:48;14.80;99.90
14006;DHT22;7078;51.542;7.314;2023-08-30T00:39:13;14.60;99.90
14006;DHT22;7078;51.542;7.314;2023-08-30T00:41:39;14.50;99.90
14006;DHT22;7078;51.542;7.314;2023-08-30T00:44:05;14.50;99.90
14006;DHT22;7078;51.542;7.314;2023-08-30T00:46:31;14.40;99.90
14006;DHT22;7078;51.542;7.314;2023-08-30T00:48:58;14.30;99.90
14006;DHT22;7078;51.542;7.314;2023-08-30T00:51:25;14.30;99.90
14006;DHT22;7078;51.542;7.314;2023-08-30T00:53:51;14.40;99.90
14006;DHT22;7078;51.542;7.314;2023-08-30T00:56:17;14.20;99.90
14006;DHT22;7078;51.542;7.314;2023-08-30T00:58:44;14.10;99.90
14006;DHT22;7078;51.542;7.314;2023-08-30T01:01:10;14.40;99.90
14006;DHT22;7078;51.542;7.314;2023-08-30T01:03:37;14.10;99.90
14006;DHT22;7078;51.542;7.314;2023-08-30T01:06:03;14.10;99.90
14006;DHT22;7078;51.542;7.314;2023-08-30T01:08:29;14.10;99.90
14006;DHT22;7078;51.542;7.314;2023-08-30T01:11:09;14.00;99.90
14006;DHT22;7078;51.542;7.314;2023-08-30T01:13:42;14.00;99.90
14006;DHT22;7078;51.542;7.314;2023-08-30T01:16:10;14.10;99.90
14006;DHT22;7078;51.542;7.314;2023-08-30T01:18:37;13.90;99.90
14006;DHT22;7078;51.542;7.314;2023-08-30T01:21:04;13.90;99.90
14006;DHT22;7078;51.542;7.314;2023-08-30T01:23:48;14.00;99.90
14006;DHT22;7078;51.542;7.314;2023-08-30T01:26:30;13.80;99.90
14006;DHT22;7078;51.542;7.314;2023-08-30T01:29:01;14.00;99.90
14006;DHT22;7078;51.542;7.314;2023-08-30T01:31:32;13.90;99.90
14006;DHT22;7078;51.542;7.314;2023-08-30T01:33:59;13.70;99.90
14006;DHT22;7078;51.542;7.314;2023-08-30T01:36:26;13.70;99.90
14006;DHT22;7078;51.542;7.314;2023-08-30T01:38:52;13.80;99.90
14006;DHT22;7078;51.542;7.314;2023-08-30T01:41:19;13.60;99.90
14006;DHT22;7078;51.542;7.314;2023-08-30T01:43:46;13.60;99.90
14006;DHT22;7078;51.542;7.314;2023-08-30T01:46:13;13.70;99.90
14006;DHT22;7078;51.542;7.314;2023-08-30T01:48:40;13.60;99.90
14006;DHT22;7078;51.542;7.314;2023-08-30T01:51:07;13.80;99.90
14006;DHT22;7078;51.542;7.314;2023-08-30T01:53:34;13.60;99.90
14006;DHT22;7078;51.542;7.314;2023-08-30T01:56:00;13.70;99.90
14006;DHT22;7078;51.542;7.314;2023-08-30T01:58:25;13.70;99.90
14006;DHT22;7078;51.542;7.314;2023-08-30T02:00:51;13.60;99.90
14006;DHT22;7078;51.542;7.314;2023-08-30T02:03:16;13.60;99.90
14006;DHT22;7078;51.542;7.314;2023-08-30T02:08:49;13.50;99.90
14006;DHT22;7078;51.542;7.314;2023-08-30T02:11:19;13.50;99.90
14006;DHT22;7078;51.542;7.314;2023-08-30T02:13:47;13.60;99.90
14006;DHT22;7078;51.542;7.314;2023-08-30T02:16:14;13.60;99.90
14006;DHT22;7078;51.542;7.314;2023-08-30T02:18:41;13.40;99.90
14006;DHT22;7078;51.542;7.314;2023-08-30T02:21:07;13.40;99.90
14006;DHT22;7078;51.542;7.314;2023-08-30T02:23:32;13.20;99.90
14006;DHT22;7078;51.542;7.314;2023-08-30T02:25:58;13.30;99.90
14006;DHT22;7078;51.542;7.314;2023-08-30T02:28:23;13.30;99.90
14006;DHT22;7078;51.542;7.314;2023-08-30T02:30:52;13.30;99.90
14006;DHT22;7078;51.542;7.314;2023-08-30T02:33:18;13.20;99.90
14006;DHT22;7078;51.542;7.314;2023-08-30T02:35:43;13.30;99.90
14006;DHT22;7078;51.542;7.314;2023-08-30T02:38:09;13.40;99.90
14006;DHT22;7078;51.542;7.314;2023-08-30T02:40:34;13.20;99.90
14006;DHT22;7078;51.542;7.314;2023-08-30T02:43:00;13.40;99.90
14006;DHT22;7078;51.542;7.314;2023-08-30T02:45:25;13.20;99.90
14006;DHT22;7078;51.542;7.314;2023-08-30T02:47:51;13.40;99.90
14006;DHT22;7078;51.542;7.314;2023-08-30T02:50:20;13.20;99.90
14006;DHT22;7078;51.542;7.314;2023-08-30T02:52:45;13.20;99.90
14006;DHT22;7078;51.542;7.314;2023-08-30T02:55:11;13.10;99.90
14006;DHT22;7078;51.542;7.314;2023-08-30T02:57:36;13.20;99.90
14006;DHT22;7078;51.542;7.314;2023-08-30T03:00:02;13.00;99.90
14006;DHT22;7078;51.542;7.314;2023-08-30T03:02:31;13.10;99.90
14006;DHT22;7078;51.542;7.314;2023-08-30T03:04:58;13.10;99.90
14006;DHT22;7078;51.542;7.314;2023-08-30T03:07:24;13.10;99.90
14006;DHT22;7078;51.542;7.314;2023-08-30T03:09:53;13.00;99.90
14006;DHT22;7078;51.542;7.314;2023-08-30T03:12:19;13.00;99.90
14006;DHT22;7078;51.542;7.314;2023-08-30T03:14:44;13.10;99.90
14006;DHT22;7078;51.542;7.314;2023-08-30T03:17:10;13.10;99.90
14006;DHT22;7078;51.542;7.314;2023-08-30T03:19:35;13.10;99.90
14006;DHT22;7078;51.542;7.314;2023-08-30T03:22:01;13.20;99.90
14006;DHT22;7078;51.542;7.314;2023-08-30T03:24:26;13.00;99.90
14006;DHT22;7078;51.542;7.314;2023-08-30T03:26:52;13.00;99.90
14006;DHT22;7078;51.542;7.314;2023-08-30T03:29:17;13.10;99.90
14006;DHT22;7078;51.542;7.314;2023-08-30T03:31:43;13.10;99.90
14006;DHT22;7078;51.542;7.314;2023-08-30T03:34:09;13.10;99.90
14006;DHT22;7078;51.542;7.314;2023-08-30T03:36:34;12.90;99.90
14006;DHT22;7078;51.542;7.314;2023-08-30T03:39:00;12.90;99.90
14006;DHT22;7078;51.542;7.314;2023-08-30T03:41:26;12.90;99.90
14006;DHT22;7078;51.542;7.314;2023-08-30T03:43:51;12.80;99.90
14006;DHT22;7078;51.542;7.314;2023-08-30T03:46:17;13.00;99.90
14006;DHT22;7078;51.542;7.314;2023-08-30T03:48:43;12.80;99.90
14006;DHT22;7078;51.542;7.314;2023-08-30T03:51:08;12.70;99.90
14006;DHT22;7078;51.542;7.314;2023-08-30T03:53:34;12.80;99.90
14006;DHT22;7078;51.542;7.314;2023-08-30T03:55:59;12.80;99.90
14006;DHT22;7078;51.542;7.314;2023-08-30T03:58:25;12.70;99.90
14006;DHT22;7078;51.542;7.314;2023-08-30T04:00:51;12.70;99.90
14006;DHT22;7078;51.542;7.314;2023-08-30T04:03:16;12.70;99.90
14006;DHT22;7078;51.542;7.314;2023-08-30T04:05:42;12.70;99.90
14006;DHT22;7078;51.542;7.314;2023-08-30T04:08:08;12.70;99.90
14006;DHT22;7078;51.542;7.314;2023-08-30T04:10:35;12.70;99.90
14006;DHT22;7078;51.542;7.314;2023-08-30T04:13:01;12.50;99.90
14006;DHT22;7078;51.542;7.314;2023-08-30T04:15:27;12.60;99.90
14006;DHT22;7078;51.542;7.314;2023-08-30T04:17:52;12.60;99.90
14006;DHT22;7078;51.542;7.314;2023-08-30T04:20:18;12.60;99.90
14006;DHT22;7078;51.542;7.314;2023-08-30T04:22:43;12.50;99.90
14006;DHT22;7078;51.542;7.314;2023-08-30T04:25:09;12.60;99.90
14006;DHT22;7078;51.542;7.314;2023-08-30T04:27:35;12.50;99.90
14006;DHT22;7078;51.542;7.314;2023-08-30T04:30:01;12.60;99.90
14006;DHT22;7078;51.542;7.314;2023-08-30T04:32:27;12.50;99.90
14006;DHT22;7078;51.542;7.314;2023-08-30T04:34:53;12.50;99.90
14006;DHT22;7078;51.542;7.314;2023-08-30T04:37:18;12.50;99.90
14006;DHT22;7078;51.542;7.314;2023-08-30T04:39:47;12.50;99.90
14006;DHT22;7078;51.542;7.314;2023-08-30T04:42:13;12.60;99.90
14006;DHT22;7078;51.542;7.314;2023-08-30T04:44:39;12.60;99.90
14006;DHT22;7078;51.542;7.314;2023-08-30T04:47:04;12.70;99.90
14006;DHT22;7078;51.542;7.314;2023-08-30T04:49:30;12.70;99.90
14006;DHT22;7078;51.542;7.314;2023-08-30T04:51:55;12.80;99.90
14006;DHT22;7078;51.542;7.314;2023-08-30T04:54:21;12.80;99.90
14006;DHT22;7078;51.542;7.314;2023-08-30T04:56:47;12.90;99.90
14006;DHT22;7078;51.542;7.314;2023-08-30T04:59:12;12.80;99.90
14006;DHT22;7078;51.542;7.314;2023-08-30T05:01:38;12.90;99.90
14006;DHT22;7078;51.542;7.314;2023-08-30T05:04:07;12.80;99.90
14006;DHT22;7078;51.542;7.314;2023-08-30T05:06:33;12.80;99.90
14006;DHT22;7078;51.542;7.314;2023-08-30T05:08:58;12.90;99.90
14006;DHT22;7078;51.542;7.314;2023-08-30T05:11:24;13.10;99.90
14006;DHT22;7078;51.542;7.314;2023-08-30T05:13:49;13.10;99.90
14006;DHT22;7078;51.542;7.314;2023-08-30T05:16:15;13.00;99.90
14006;DHT22;7078;51.542;7.314;2023-08-30T05:18:40;13.00;99.90
14006;DHT22;7078;51.542;7.314;2023-08-30T05:21:06;13.20;99.90
14006;DHT22;7078;51.542;7.314;2023-08-30T05:23:31;13.20;99.90
14006;DHT22;7078;51.542;7.314;2023-08-30T05:25:57;13.10;99.90
14006;DHT22;7078;51.542;7.314;2023-08-30T05:28:23;13.20;99.90
14006;DHT22;7078;51.542;7.314;2023-08-30T05:30:48;13.20;99.90
14006;DHT22;7078;51.542;7.314;2023-08-30T05:33:14;13.20;99.90
14006;DHT22;7078;51.542;7.314;2023-08-30T05:35:39;13.30;99.90
14006;DHT22;7078;51.542;7.314;2023-08-30T05:38:05;13.30;99.90
14006;DHT22;7078;51.542;7.314;2023-08-30T05:40:31;13.30;99.90
14006;DHT22;7078;51.542;7.314;2023-08-30T05:42:56;13.30;99.90
14006;DHT22;7078;51.542;7.314;2023-08-30T05:45:22;13.40;99.90
14006;DHT22;7078;51.542;7.314;2023-08-30T05:47:47;13.60;99.90
14006;DHT22;7078;51.542;7.314;2023-08-30T05:50:13;13.40;99.90
14006;DHT22;7078;51.542;7.314;2023-08-30T05:52:39;13.50;99.90
14006;DHT22;7078;51.542;7.314;2023-08-30T05:55:07;13.50;99.90
14006;DHT22;7078;51.542;7.314;2023-08-30T05:57:34;13.60;99.90
14006;DHT22;7078;51.542;7.314;2023-08-30T06:00:00;13.60;99.90
14006;DHT22;7078;51.542;7.314;2023-08-30T06:02:26;13.80;99.90
14006;DHT22;7078;51.542;7.314;2023-08-30T06:04:52;13.70;99.90
14006;DHT22;7078;51.542;7.314;2023-08-30T06:07:17;13.70;99.90
14006;DHT22;7078;51.542;7.314;2023-08-30T06:09:43;13.80;99.90
14006;DHT22;7078;51.542;7.314;2023-08-30T06:12:09;13.90;99.90
14006;DHT22;7078;51.542;7.314;2023-08-30T06:14:35;14.10;99.90
14006;DHT22;7078;51.542;7.314;2023-08-30T06:17:00;13.90;99.90
14006;DHT22;7078;51.542;7.314;2023-08-30T06:19:26;14.10;99.90
14006;DHT22;7078;51.542;7.314;2023-08-30T06:21:52;14.20;99.90
14006;DHT22;7078;51.542;7.314;2023-08-30T06:24:17;14.20;99.90
14006;DHT22;7078;51.542;7.314;2023-08-30T06:26:43;14.40;99.90
14006;DHT22;7078;51.542;7.314;2023-08-30T06:29:08;14.30;99.90
14006;DHT22;7078;51.542;7.314;2023-08-30T06:31:34;14.40;99.90
14006;DHT22;7078;51.542;7.314;2023-08-30T06:33:59;14.60;99.90
14006;DHT22;7078;51.542;7.314;2023-08-30T06:36:25;14.50;99.90
14006;DHT22;7078;51.542;7.314;2023-08-30T06:38:51;14.50;99.90
14006;DHT22;7078;51.542;7.314;2023-08-30T06:41:16;14.50;99.90
14006;DHT22;7078;51.542;7.314;2023-08-30T06:43:42;14.60;99.90
14006;DHT22;7078;51.542;7.314;2023-08-30T06:46:07;14.70;99.90
14006;DHT22;7078;51.542;7.314;2023-08-30T06:48:33;14.80;99.90
14006;DHT22;7078;51.542;7.314;2023-08-30T06:50:59;14.80;99.90
14006;DHT22;7078;51.542;7.314;2023-08-30T06:53:28;14.90;99.90
14006;DHT22;7078;51.542;7.314;2023-08-30T06:56:00;14.90;99.90
14006;DHT22;7078;51.542;7.314;2023-08-30T06:58:26;15.00;99.90
14006;DHT22;7078;51.542;7.314;2023-08-30T07:00:52;15.20;99.90
14006;DHT22;7078;51.542;7.314;2023-08-30T07:03:17;15.20;99.90
14006;DHT22;7078;51.542;7.314;2023-08-30T07:05:43;15.30;99.90
14006;DHT22;7078;51.542;7.314;2023-08-30T07:08:09;15.30;99.90
14006;DHT22;7078;51.542;7.314;2023-08-30T07:10:35;15.50;99.90
14006;DHT22;7078;51.542;7.314;2023-08-30T07:13:01;15.60;99.90
14006;DHT22;7078;51.542;7.314;2023-08-30T07:15:27;15.70;99.90
14006;DHT22;7078;51.542;7.314;2023-08-30T07:17:53;15.70;99.90
14006;DHT22;7078;51.542;7.314;2023-08-30T07:20:18;15.90;99.90
14006;DHT22;7078;51.542;7.314;2023-08-30T07:22:44;16.00;99.90
14006;DHT22;7078;51.542;7.314;2023-08-30T07:25:10;16.00;99.90
14006;DHT22;7078;51.542;7.314;2023-08-30T07:27:36;16.00;99.90
14006;DHT22;7078;51.542;7.314;2023-08-30T07:30:03;16.40;99.90
14006;DHT22;7078;51.542;7.314;2023-08-30T07:32:30;16.20;99.90
14006;DHT22;7078;51.542;7.314;2023-08-30T07:34:55;16.00;99.90
14006;DHT22;7078;51.542;7.314;2023-08-30T07:37:21;16.20;99.90
14006;DHT22;7078;51.542;7.314;2023-08-30T07:39:47;16.20;99.90
14006;DHT22;7078;51.542;7.314;2023-08-30T07:42:14;16.30;99.90
14006;DHT22;7078;51.542;7.314;2023-08-30T07:44:40;16.50;99.90
14006;DHT22;7078;51.542;7.314;2023-08-30T07:47:05;16.50;99.90
14006;DHT22;7078;51.542;7.314;2023-08-30T07:49:31;16.60;99.90
14006;DHT22;7078;51.542;7.314;2023-08-30T07:51:57;16.80;99.90
14006;DHT22;7078;51.542;7.314;2023-08-30T07:54:22;16.80;99.90
14006;DHT22;7078;51.542;7.314;2023-08-30T07:56:48;17.10;99.90
14006;DHT22;7078;51.542;7.314;2023-08-30T07:59:13;17.10;99.90
14006;DHT22;7078;51.542;7.314;2023-08-30T08:01:39;17.10;99.90
14006;DHT22;7078;51.542;7.314;2023-08-30T08:04:05;17.20;99.90
14006;DHT22;7078;51.542;7.314;2023-08-30T08:06:30;17.30;99.90
14006;DHT22;7078;51.542;7.314;2023-08-30T08:08:56;17.50;99.90
14006;DHT22;7078;51.542;7.314;2023-08-30T08:11:21;17.50;99.90
14006;DHT22;7078;51.542;7.314;2023-08-30T08:13:47;17.60;99.90
14006;DHT22;7078;51.542;7.314;2023-08-30T08:16:13;17.70;99.90
14006;DHT22;7078;51.542;7.314;2023-08-30T08:18:38;17.90;99.90
14006;DHT22;7078;51.542;7.314;2023-08-30T08:21:04;17.90;99.90
14006;DHT22;7078;51.542;7.314;2023-08-30T08:23:29;17.90;99.90
14006;DHT22;7078;51.542;7.314;2023-08-30T08:25:59;18.10;99.90
14006;DHT22;7078;51.542;7.314;2023-08-30T08:28:25;18.10;99.90
14006;DHT22;7078;51.542;7.314;2023-08-30T08:30:50;18.10;99.90
14006;DHT22;7078;51.542;7.314;2023-08-30T08:33:19;18.20;99.90
14006;DHT22;7078;51.542;7.314;2023-08-30T08:35:48;18.30;99.90
14006;DHT22;7078;51.542;7.314;2023-08-30T08:38:13;18.30;99.90
14006;DHT22;7078;51.542;7.314;2023-08-30T08:40:39;18.50;99.90
14006;DHT22;7078;51.542;7.314;2023-08-30T08:43:05;18.60;99.90
14006;DHT22;7078;51.542;7.314;2023-08-30T08:45:34;18.50;99.90
14006;DHT22;7078;51.542;7.314;2023-08-30T08:48:04;18.70;99.90
14006;DHT22;7078;51.542;7.314;2023-08-30T08:50:33;18.90;99.90
14006;DHT22;7078;51.542;7.314;2023-08-30T08:52:59;19.00;99.90
14006;DHT22;7078;51.542;7.314;2023-08-30T08:55:28;19.00;99.90
14006;DHT22;7078;51.542;7.314;2023-08-30T08:57:56;19.30;99.90
14006;DHT22;7078;51.542;7.314;2023-08-30T09:00:23;19.10;99.90
14006;DHT22;7078;51.542;7.314;2023-08-30T09:02:49;19.10;99.90
14006;DHT22;7078;51.542;7.314;2023-08-30T09:05:18;19.10;99.90
14006;DHT22;7078;51.542;7.314;2023-08-30T09:07:44;19.30;99.90
14006;DHT22;7078;51.542;7.314;2023-08-30T09:10:10;19.40;99.90
14006;DHT22;7078;51.542;7.314;2023-08-30T09:12:36;19.70;99.90
14006;DHT22;7078;51.542;7.314;2023-08-30T09:15:01;19.60;98.40
14006;DHT22;7078;51.542;7.314;2023-08-30T09:17:38;19.60;99.90
14006;DHT22;7078;51.542;7.314;2023-08-30T09:20:11;19.90;99.90
14006;DHT22;7078;51.542;7.314;2023-08-30T09:22:40;19.80;99.00
14006;DHT22;7078;51.542;7.314;2023-08-30T09:25:08;19.90;99.20
14006;DHT22;7078;51.542;7.314;2023-08-30T09:27:35;19.80;99.90
14006;DHT22;7078;51.542;7.314;2023-08-30T09:30:01;19.80;99.90
14006;DHT22;7078;51.542;7.314;2023-08-30T09:32:28;19.60;99.90
14006;DHT22;7078;51.542;7.314;2023-08-30T09:34:53;19.70;99.90
14006;DHT22;7078;51.542;7.314;2023-08-30T09:37:20;19.40;99.90
14006;DHT22;7078;51.542;7.314;2023-08-30T09:39:52;19.50;99.90
14006;DHT22;7078;51.542;7.314;2023-08-30T09:42:18;19.60;99.90
14006;DHT22;7078;51.542;7.314;2023-08-30T09:44:44;19.40;99.90
14006;DHT22;7078;51.542;7.314;2023-08-30T09:47:10;19.50;99.90
14006;DHT22;7078;51.542;7.314;2023-08-30T09:49:44;19.40;99.90
14006;DHT22;7078;51.542;7.314;2023-08-30T09:52:12;19.40;99.90
14006;DHT22;7078;51.542;7.314;2023-08-30T09:54:41;19.40;99.90
14006;DHT22;7078;51.542;7.314;2023-08-30T09:57:09;19.40;99.90
14006;DHT22;7078;51.542;7.314;2023-08-30T09:59:35;19.50;99.90
14006;DHT22;7078;51.542;7.314;2023-08-30T10:02:01;19.50;99.90
14006;DHT22;7078;51.542;7.314;2023-08-30T10:04:27;19.60;99.90
14006;DHT22;7078;51.542;7.314;2023-08-30T10:06:54;19.80;99.90
14006;DHT22;7078;51.542;7.314;2023-08-30T10:09:21;19.80;99.90
14006;DHT22;7078;51.542;7.314;2023-08-30T10:11:47;19.60;99.90
14006;DHT22;7078;51.542;7.314;2023-08-30T10:14:13;19.40;99.90
14006;DHT22;7078;51.542;7.314;2023-08-30T10:16:49;19.60;99.90
14006;DHT22;7078;51.542;7.314;2023-08-30T10:19:24;19.20;99.90
14006;DHT22;7078;51.542;7.314;2023-08-30T10:22:04;18.90;99.90
14006;DHT22;7078;51.542;7.314;2023-08-30T10:24:34;18.60;99.90
14006;DHT22;7078;51.542;7.314;2023-08-30T10:27:03;18.50;99.90
14006;DHT22;7078;51.542;7.314;2023-08-30T10:29:30;18.00;99.90
14006;DHT22;7078;51.542;7.314;2023-08-30T10:32:05;17.60;99.90
14006;DHT22;7078;51.542;7.314;2023-08-30T10:34:37;17.40;99.90
14006;DHT22;7078;51.542;7.314;2023-08-30T10:37:06;17.10;99.90
14006;DHT22;7078;51.542;7.314;2023-08-30T10:39:42;16.90;99.90
14006;DHT22;7078;51.542;7.314;2023-08-30T10:42:15;16.80;99.90
14006;DHT22;7078;51.542;7.314;2023-08-30T10:44:47;16.60;99.90
14006;DHT22;7078;51.542;7.314;2023-08-30T10:47:23;16.50;99.90
14006;DHT22;7078;51.542;7.314;2023-08-30T10:49:54;16.40;99.90
14006;DHT22;7078;51.542;7.314;2023-08-30T10:52:21;16.40;99.90
14006;DHT22;7078;51.542;7.314;2023-08-30T10:54:46;16.30;99.90
14006;DHT22;7078;51.542;7.314;2023-08-30T10:57:13;16.40;99.90
14006;DHT22;7078;51.542;7.314;2023-08-30T10:59:39;16.60;99.90
14006;DHT22;7078;51.542;7.314;2023-08-30T11:02:06;16.50;99.90
14006;DHT22;7078;51.542;7.314;2023-08-30T11:04:32;16.30;99.90
14006;DHT22;7078;51.542;7.314;2023-08-30T11:06:58;16.40;99.90
14006;DHT22;7078;51.542;7.314;2023-08-30T11:09:24;16.40;99.90
14006;DHT22;7078;51.542;7.314;2023-08-30T11:11:51;16.40;99.90
14006;DHT22;7078;51.542;7.314;2023-08-30T11:14:18;16.30;99.90
14006;DHT22;7078;51.542;7.314;2023-08-30T11:16:44;16.30;99.90
14006;DHT22;7078;51.542;7.314;2023-08-30T11:19:11;16.30;99.90
14006;DHT22;7078;51.542;7.314;2023-08-30T11:21:38;16.20;99.90
14006;DHT22;7078;51.542;7.314;2023-08-30T11:24:05;16.20;99.90
14006;DHT22;7078;51.542;7.314;2023-08-30T11:26:31;16.20;99.90
14006;DHT22;7078;51.542;7.314;2023-08-30T11:28:57;16.30;99.90
14006;DHT22;7078;51.542;7.314;2023-08-30T11:31:27;16.20;99.90
14006;DHT22;7078;51.542;7.314;2023-08-30T11:34:00;16.10;99.90
14006;DHT22;7078;51.542;7.314;2023-08-30T11:36:30;16.30;99.90
14006;DHT22;7078;51.542;7.314;2023-08-30T11:38:56;16.20;99.90
14006;DHT22;7078;51.542;7.314;2023-08-30T11:41:23;16.20;99.90
14006;DHT22;7078;51.542;7.314;2023-08-30T11:43:49;16.40;99.90
14006;DHT22;7078;51.542;7.314;2023-08-30T11:46:16;16.20;99.90
14006;DHT22;7078;51.542;7.314;2023-08-30T11:48:43;15.90;99.90
14006;DHT22;7078;51.542;7.314;2023-08-30T11:51:09;16.00;99.90
14006;DHT22;7078;51.542;7.314;2023-08-30T11:53:37;16.00;99.90
14006;DHT22;7078;51.542;7.314;2023-08-30T11:56:03;16.00;99.90
14006;DHT22;7078;51.542;7.314;2023-08-30T11:58:33;15.80;99.90
14006;DHT22;7078;51.542;7.314;2023-08-30T12:01:00;15.80;99.90
14006;DHT22;7078;51.542;7.314;2023-08-30T12:03:27;15.70;99.90
14006;DHT22;7078;51.542;7.314;2023-08-30T12:05:53;16.00;99.90
14006;DHT22;7078;51.542;7.314;2023-08-30T12:08:20;16.10;99.90
14006;DHT22;7078;51.542;7.314;2023-08-30T12:10:46;16.30;99.90
14006;DHT22;7078;51.542;7.314;2023-08-30T12:13:25;16.10;99.90
14006;DHT22;7078;51.542;7.314;2023-08-30T12:15:51;16.10;99.90
14006;DHT22;7078;51.542;7.314;2023-08-30T12:18:21;16.10;99.90
14006;DHT22;7078;51.542;7.314;2023-08-30T12:20:55;16.00;99.90
14006;DHT22;7078;51.542;7.314;2023-08-30T12:23:25;16.00;99.90
14006;DHT22;7078;51.542;7.314;2023-08-30T12:28:27;15.90;99.90
14006;DHT22;7078;51.542;7.314;2023-08-30T12:30:53;15.90;99.90
14006;DHT22;7078;51.542;7.314;2023-08-30T12:33:19;15.80;99.90
14006;DHT22;7078;51.542;7.314;2023-08-30T12:35:45;15.80;99.90
14006;DHT22;7078;51.542;7.314;2023-08-30T12:38:10;16.00;99.90
14006;DHT22;7078;51.542;7.314;2023-08-30T12:40:46;16.20;99.90
14006;DHT22;7078;51.542;7.314;2023-08-30T12:43:16;16.20;99.90
14006;DHT22;7078;51.542;7.314;2023-08-30T12:45:42;16.20;99.90
14006;DHT22;7078;51.542;7.314;2023-08-30T12:48:09;16.40;99.90
14006;DHT22;7078;51.542;7.314;2023-08-30T12:50:36;16.30;99.90
14006;DHT22;7078;51.542;7.314;2023-08-30T12:53:03;16.30;99.90
14006;DHT22;7078;51.542;7.314;2023-08-30T12:55:29;16.30;99.90
14006;DHT22;7078;51.542;7.314;2023-08-30T12:57:55;16.20;99.90
14006;DHT22;7078;51.542;7.314;2023-08-30T13:00:20;16.10;99.90
14006;DHT22;7078;51.542;7.314;2023-08-30T13:02:46;16.00;99.90
14006;DHT22;7078;51.542;7.314;2023-08-30T13:05:12;16.00;99.90
14006;DHT22;7078;51.542;7.314;2023-08-30T13:07:37;16.20;99.90
14006;DHT22;7078;51.542;7.314;2023-08-30T13:10:03;16.10;99.90
14006;DHT22;7078;51.542;7.314;2023-08-30T13:12:29;16.30;99.90
14006;DHT22;7078;51.542;7.314;2023-08-30T13:14:54;16.40;99.90
14006;DHT22;7078;51.542;7.314;2023-08-30T13:17:20;16.50;99.90
14006;DHT22;7078;51.542;7.314;2023-08-30T13:19:45;16.50;99.90
14006;DHT22;7078;51.542;7.314;2023-08-30T13:22:11;16.30;99.90
14006;DHT22;7078;51.542;7.314;2023-08-30T13:24:37;16.40;99.90
14006;DHT22;7078;51.542;7.314;2023-08-30T13:27:03;16.30;99.90
14006;DHT22;7078;51.542;7.314;2023-08-30T13:29:29;16.40;99.90
14006;DHT22;7078;51.542;7.314;2023-08-30T13:31:55;16.40;99.90
14006;DHT22;7078;51.542;7.314;2023-08-30T13:34:20;16.30;99.90
14006;DHT22;7078;51.542;7.314;2023-08-30T13:36:46;16.20;99.90
14006;DHT22;7078;51.542;7.314;2023-08-30T13:39:11;16.10;99.90
14006;DHT22;7078;51.542;7.314;2023-08-30T13:41:37;16.00;99.90
14006;DHT22;7078;51.542;7.314;2023-08-30T13:44:03;15.90;99.90
14006;DHT22;7078;51.542;7.314;2023-08-30T13:46:30;15.80;99.90
14006;DHT22;7078;51.542;7.314;2023-08-30T13:48:55;15.70;99.90
14006;DHT22;7078;51.542;7.314;2023-08-30T13:51:22;15.70;99.90
14006;DHT22;7078;51.542;7.314;2023-08-30T13:53:48;15.60;99.90
14006;DHT22;7078;51.542;7.314;2023-08-30T13:56:14;15.50;99.90
14006;DHT22;7078;51.542;7.314;2023-08-30T13:58:39;15.50;99.90
14006;DHT22;7078;51.542;7.314;2023-08-30T14:01:05;15.40;99.90
14006;DHT22;7078;51.542;7.314;2023-08-30T14:03:31;15.40;99.90
14006;DHT22;7078;51.542;7.314;2023-08-30T14:05:56;15.50;99.90
14006;DHT22;7078;51.542;7.314;2023-08-30T14:08:22;15.40;99.90
14006;DHT22;7078;51.542;7.314;2023-08-30T14:10:48;15.40;99.90
14006;DHT22;7078;51.542;7.314;2023-08-30T14:13:13;15.50;99.90
14006;DHT22;7078;51.542;7.314;2023-08-30T14:15:40;15.70;99.90
14006;DHT22;7078;51.542;7.314;2023-08-30T14:18:06;15.60;99.90
14006;DHT22;7078;51.542;7.314;2023-08-30T14:20:31;15.60;99.90
14006;DHT22;7078;51.542;7.314;2023-08-30T14:22:57;15.60;99.90
14006;DHT22;7078;51.542;7.314;2023-08-30T14:25:22;15.70;99.90
14006;DHT22;7078;51.542;7.314;2023-08-30T14:27:48;15.80;99.90
14006;DHT22;7078;51.542;7.314;2023-08-30T14:30:14;15.80;99.90
14006;DHT22;7078;51.542;7.314;2023-08-30T14:32:40;15.80;99.90
14006;DHT22;7078;51.542;7.314;2023-08-30T14:35:06;15.80;99.90
14006;DHT22;7078;51.542;7.314;2023-08-30T14:37:32;15.90;99.90
14006;DHT22;7078;51.542;7.314;2023-08-30T14:39:59;15.80;99.90
14006;DHT22;7078;51.542;7.314;2023-08-30T14:42:26;16.00;99.90
14006;DHT22;7078;51.542;7.314;2023-08-30T14:44:51;16.00;99.90
14006;DHT22;7078;51.542;7.314;2023-08-30T14:47:17;16.00;99.90
14006;DHT22;7078;51.542;7.314;2023-08-30T14:49:44;16.00;99.90
14006;DHT22;7078;51.542;7.314;2023-08-30T14:52:10;16.00;99.90
14006;DHT22;7078;51.542;7.314;2023-08-30T14:54:35;15.90;99.90
14006;DHT22;7078;51.542;7.314;2023-08-30T14:57:01;16.00;99.90
14006;DHT22;7078;51.542;7.314;2023-08-30T14:59:27;15.90;99.90
14006;DHT22;7078;51.542;7.314;2023-08-30T15:01:52;16.00;99.90
14006;DHT22;7078;51.542;7.314;2023-08-30T15:04:18;15.80;99.90
14006;DHT22;7078;51.542;7.314;2023-08-30T15:06:43;15.90;99.90
14006;DHT22;7078;51.542;7.314;2023-08-30T15:09:09;15.60;99.90
14006;DHT22;7078;51.542;7.314;2023-08-30T15:11:37;15.60;99.90
14006;DHT22;7078;51.542;7.314;2023-08-30T15:14:03;15.70;99.90
14006;DHT22;7078;51.542;7.314;2023-08-30T15:16:28;15.40;99.90
14006;DHT22;7078;51.542;7.314;2023-08-30T15:18:54;15.30;99.90
14006;DHT22;7078;51.542;7.314;2023-08-30T15:21:20;15.30;99.90
14006;DHT22;7078;51.542;7.314;2023-08-30T15:23:45;15.30;99.90
14006;DHT22;7078;51.542;7.314;2023-08-30T15:26:11;15.30;99.90
14006;DHT22;7078;51.542;7.314;2023-08-30T15:28:41;15.20;99.90
14006;DHT22;7078;51.542;7.314;2023-08-30T15:31:08;15.10;99.90
14006;DHT22;7078;51.542;7.314;2023-08-30T15:33:34;15.10;99.90
14006;DHT22;7078;51.542;7.314;2023-08-30T15:36:00;15.00;99.90
14006;DHT22;7078;51.542;7.314;2023-08-30T15:38:26;14.80;99.90
14006;DHT22;7078;51.542;7.314;2023-08-30T15:40:53;15.00;99.90
14006;DHT22;7078;51.542;7.314;2023-08-30T15:43:20;14.60;99.90
14006;DHT22;7078;51.542;7.314;2023-08-30T15:45:45;14.60;99.90